createdAt,value
2017-12-10T00:00:42.659Z,57.90
2017-12-10T00:03:10.258Z,57.70
2017-12-10T00:05:37.826Z,57.70
2017-12-10T00:08:05.472Z,57.70
2017-12-10T00:10:33.052Z,57.70
2017-12-10T00:13:01.445Z,58.20
2017-12-10T00:15:29.035Z,58.10
2017-12-10T00:17:56.617Z,58.00
2017-12-10T00:20:24.214Z,58.30
2017-12-10T00:22:51.815Z,58.40
2017-12-10T00:25:19.410Z,58.20
2017-12-10T00:27:46.998Z,58.20
2017-12-10T00:30:14.562Z,58.90
2017-12-10T00:32:42.160Z,58.50
2017-12-10T00:35:10.510Z,58.80
2017-12-10T00:37:38.138Z,58.20
2017-12-10T00:40:05.706Z,58.30
2017-12-10T00:42:33.322Z,58.30
2017-12-10T00:45:00.887Z,58.40
2017-12-10T00:47:28.457Z,58.30
2017-12-10T00:49:56.059Z,58.40
2017-12-10T00:52:24.398Z,58.30
2017-12-10T00:54:51.999Z,58.30
2017-12-10T00:57:20.334Z,58.50
2017-12-10T00:59:47.942Z,58.40
2017-12-10T01:02:16.282Z,58.70
2017-12-10T01:04:43.900Z,58.70
2017-12-10T01:07:11.483Z,58.60
2017-12-10T01:09:39.070Z,58.60
2017-12-10T01:12:06.640Z,58.20
2017-12-10T01:14:34.234Z,58.40
2017-12-10T01:17:01.823Z,58.40
2017-12-10T01:19:29.419Z,58.40
2017-12-10T01:21:57.754Z,58.70
2017-12-10T01:24:25.350Z,58.70
2017-12-10T01:26:52.943Z,58.90
2017-12-10T01:29:20.539Z,58.70
2017-12-10T01:31:48.138Z,58.80
2017-12-10T01:34:15.726Z,58.90
2017-12-10T01:36:43.296Z,59.10
2017-12-10T01:39:10.879Z,58.90
2017-12-10T01:41:38.450Z,59.10
2017-12-10T01:44:06.043Z,59.00
2017-12-10T01:46:34.374Z,59.30
2017-12-10T01:49:01.982Z,59.20
2017-12-10T01:51:30.328Z,59.00
2017-12-10T01:53:57.948Z,59.00
2017-12-10T01:56:25.533Z,59.10
2017-12-10T01:58:53.118Z,59.00
2017-12-10T02:01:20.717Z,59.30
2017-12-10T02:03:48.288Z,59.30
2017-12-10T02:06:15.878Z,59.30
2017-12-10T02:08:43.454Z,59.10
2017-12-10T02:11:11.051Z,59.10
2017-12-10T02:13:38.613Z,59.70
2017-12-10T02:16:06.202Z,59.60
2017-12-10T02:18:33.769Z,59.80
2017-12-10T02:21:01.376Z,59.70
2017-12-10T02:23:28.941Z,59.50
2017-12-10T02:25:56.537Z,59.80
2017-12-10T02:28:24.111Z,59.60
2017-12-10T02:30:51.701Z,59.60
2017-12-10T02:33:19.283Z,59.60
2017-12-10T02:35:46.878Z,59.70
2017-12-10T02:38:14.460Z,60.40
2017-12-10T02:40:42.055Z,59.90
2017-12-10T02:43:09.631Z,59.80
2017-12-10T02:45:37.239Z,60.40
2017-12-10T02:48:04.806Z,60.00
2017-12-10T02:50:33.157Z,59.80
2017-12-10T02:53:00.727Z,59.80
2017-12-10T02:55:38.154Z,59.50
2017-12-10T02:58:05.735Z,59.90
2017-12-10T03:00:34.094Z,59.50
2017-12-10T03:03:01.663Z,59.50
2017-12-10T03:05:29.263Z,60.00
2017-12-10T03:07:56.831Z,59.80
2017-12-10T03:10:24.403Z,59.70
2017-12-10T03:12:52.006Z,60.10
2017-12-10T03:15:19.582Z,59.80
2017-12-10T03:17:47.174Z,60.00
2017-12-10T03:20:14.750Z,59.90
2017-12-10T03:22:42.375Z,60.00
2017-12-10T03:25:09.942Z,59.50
2017-12-10T03:27:37.534Z,60.00
2017-12-10T03:30:05.868Z,60.00
2017-12-10T03:32:33.476Z,60.00
2017-12-10T03:35:01.050Z,60.00
2017-12-10T03:37:28.642Z,60.30
2017-12-10T03:39:56.205Z,60.30
2017-12-10T03:42:23.798Z,60.20
2017-12-10T03:44:52.130Z,60.00
2017-12-10T03:47:19.720Z,60.00
2017-12-10T03:49:47.286Z,60.00
2017-12-10T03:52:15.639Z,60.30
2017-12-10T03:54:43.219Z,60.20
2017-12-10T03:57:10.816Z,60.30
2017-12-10T03:59:38.398Z,60.40
2017-12-10T04:02:06.011Z,60.40
2017-12-10T04:04:33.590Z,60.10
2017-12-10T04:07:01.199Z,59.60
2017-12-10T04:09:28.778Z,60.00
2017-12-10T04:11:57.138Z,60.40
2017-12-10T04:14:24.707Z,60.30
2017-12-10T04:16:52.298Z,60.20
2017-12-10T04:19:19.875Z,60.40
2017-12-10T04:21:47.446Z,60.70
2017-12-10T04:24:15.039Z,60.70
2017-12-10T04:26:42.611Z,60.30
2017-12-10T04:29:10.208Z,60.50
2017-12-10T04:31:37.791Z,60.20
2017-12-10T04:34:05.379Z,59.50
2017-12-10T04:36:32.962Z,59.80
2017-12-10T04:39:01.315Z,59.00
2017-12-10T04:41:28.886Z,59.00
2017-12-10T04:43:56.486Z,59.50
2017-12-10T04:46:24.077Z,59.70
2017-12-10T04:48:51.674Z,60.00
2017-12-10T04:51:20.014Z,59.50
2017-12-10T04:53:47.601Z,59.50
2017-12-10T04:56:15.934Z,60.00
2017-12-10T04:58:43.529Z,60.00
2017-12-10T05:01:11.100Z,60.30
2017-12-10T05:03:38.703Z,59.90
2017-12-10T05:06:06.300Z,60.00
2017-12-10T05:08:33.886Z,59.30
2017-12-10T05:11:02.214Z,58.40
2017-12-10T05:13:29.827Z,58.40
2017-12-10T05:15:57.392Z,58.50
2017-12-10T05:18:24.979Z,57.90
2017-12-10T05:20:52.542Z,58.50
2017-12-10T05:23:20.134Z,58.90
2017-12-10T05:25:47.713Z,59.40
2017-12-10T05:28:16.045Z,59.30
2017-12-10T05:30:43.641Z,59.20
2017-12-10T05:33:11.974Z,57.70
2017-12-10T05:35:39.569Z,57.60
2017-12-10T05:38:07.145Z,58.70
2017-12-10T05:40:35.554Z,58.90
2017-12-10T05:43:03.103Z,58.80
2017-12-10T05:45:30.686Z,59.00
2017-12-10T05:47:58.245Z,58.30
2017-12-10T05:50:25.834Z,57.60
2017-12-10T05:52:53.402Z,57.00
2017-12-10T05:55:20.994Z,57.10
2017-12-10T05:57:48.554Z,57.80
2017-12-10T06:00:16.151Z,56.40
2017-12-10T06:02:43.717Z,57.50
2017-12-10T06:05:11.311Z,57.80
2017-12-10T06:07:38.874Z,57.10
2017-12-10T06:10:06.487Z,57.00
2017-12-10T06:12:34.058Z,56.00
2017-12-10T06:15:01.654Z,56.10
2017-12-10T06:17:30.057Z,56.00
2017-12-10T06:19:57.585Z,56.00
2017-12-10T06:22:25.154Z,56.00
2017-12-10T06:24:52.751Z,55.90
2017-12-10T06:27:20.318Z,56.30
2017-12-10T06:29:47.915Z,55.90
2017-12-10T06:32:16.246Z,55.50
2017-12-10T06:34:43.850Z,55.50
2017-12-10T06:37:11.423Z,56.10
2017-12-10T06:39:39.778Z,55.90
2017-12-10T06:42:07.372Z,55.90
2017-12-10T06:44:34.942Z,56.30
2017-12-10T06:47:02.543Z,56.80
2017-12-10T06:49:30.114Z,56.80
2017-12-10T06:51:57.698Z,57.20
2017-12-10T06:54:26.026Z,57.30
2017-12-10T06:56:53.622Z,57.30
2017-12-10T06:59:21.963Z,57.40
2017-12-10T07:01:49.555Z,57.90
2017-12-10T07:04:17.890Z,57.90
2017-12-10T07:06:45.478Z,57.90
2017-12-10T07:09:13.051Z,58.10
2017-12-10T07:11:41.405Z,58.50
2017-12-10T07:14:08.971Z,58.30
2017-12-10T07:16:36.563Z,58.40
2017-12-10T07:19:04.130Z,58.50
2017-12-10T07:21:32.493Z,58.90
2017-12-10T07:24:00.836Z,59.00
2017-12-10T07:26:28.484Z,59.00
2017-12-10T07:28:56.049Z,59.10
2017-12-10T07:31:23.643Z,59.10
2017-12-10T07:33:51.218Z,59.40
2017-12-10T07:36:18.811Z,58.10
2017-12-10T07:38:46.379Z,58.60
2017-12-10T07:41:13.967Z,59.00
2017-12-10T07:43:41.538Z,59.30
2017-12-10T07:46:09.110Z,59.50
2017-12-10T07:48:36.701Z,59.70
2017-12-10T07:51:04.266Z,59.60
2017-12-10T07:53:31.854Z,59.60
2017-12-10T07:55:59.430Z,59.50
2017-12-10T07:58:27.025Z,59.50
2017-12-10T08:00:54.595Z,58.90
2017-12-10T08:03:22.182Z,59.10
2017-12-10T08:05:49.752Z,59.30
2017-12-10T08:08:17.337Z,59.50
2017-12-10T08:10:45.684Z,59.70
2017-12-10T08:13:13.266Z,59.60
2017-12-10T08:15:41.598Z,59.70
2017-12-10T08:18:09.199Z,59.70
2017-12-10T08:20:37.539Z,59.30
2017-12-10T08:23:05.148Z,59.20
2017-12-10T08:25:33.473Z,58.00
2017-12-10T08:28:01.087Z,58.00
2017-12-10T08:30:28.667Z,57.00
2017-12-10T08:32:56.256Z,55.50
2017-12-10T08:35:23.823Z,55.40
2017-12-10T08:37:51.416Z,55.90
2017-12-10T08:40:18.986Z,54.00
2017-12-10T08:42:46.583Z,53.90
2017-12-10T08:45:14.163Z,53.50
2017-12-10T08:47:41.751Z,54.30
2017-12-10T08:50:10.087Z,53.50
2017-12-10T08:52:37.694Z,53.40
2017-12-10T08:55:05.271Z,52.80
2017-12-10T08:57:32.839Z,51.70
2017-12-10T09:00:00.434Z,52.30
2017-12-10T09:02:28.006Z,52.00
2017-12-10T09:04:55.607Z,52.80
2017-12-10T09:07:23.180Z,52.40
2017-12-10T09:09:50.769Z,53.00
2017-12-10T09:12:18.339Z,53.80
2017-12-10T09:14:45.939Z,52.90
2017-12-10T09:17:13.548Z,53.20
2017-12-10T09:19:41.120Z,54.40
2017-12-10T09:22:08.692Z,54.10
2017-12-10T09:24:36.299Z,55.90
2017-12-10T09:27:03.871Z,56.20
2017-12-10T09:29:31.579Z,56.70
2017-12-10T09:31:59.918Z,57.60
2017-12-10T09:34:27.509Z,57.50
2017-12-10T09:36:55.102Z,58.60
2017-12-10T09:39:22.722Z,59.30
2017-12-10T09:41:50.315Z,59.60
2017-12-10T09:44:17.914Z,61.20
2017-12-10T09:46:45.490Z,61.50
2017-12-10T09:49:13.111Z,60.40
2017-12-10T09:51:40.985Z,60.70
2017-12-10T09:54:09.182Z,61.90
2017-12-10T09:56:36.767Z,60.50
2017-12-10T09:59:04.358Z,61.10
2017-12-10T10:01:31.952Z,62.60
2017-12-10T10:03:59.740Z,62.40
2017-12-10T10:06:31.190Z,64.10
2017-12-10T10:08:58.880Z,63.40
2017-12-10T10:11:26.497Z,62.70
2017-12-10T10:13:54.083Z,62.80
2017-12-10T10:16:22.442Z,63.40
2017-12-10T10:18:50.014Z,63.30
2017-12-10T10:21:18.376Z,63.30
2017-12-10T10:23:45.944Z,63.30
2017-12-10T10:26:13.547Z,62.90
2017-12-10T10:28:41.114Z,62.40
2017-12-10T10:31:08.702Z,63.50
2017-12-10T10:33:36.273Z,63.90
2017-12-10T10:36:03.915Z,63.80
2017-12-10T10:38:31.481Z,63.90
2017-12-10T10:40:59.075Z,63.40
2017-12-10T10:43:27.454Z,62.70
2017-12-10T10:45:55.046Z,62.70
2017-12-10T10:48:22.655Z,62.80
2017-12-10T10:50:50.255Z,63.50
2017-12-10T10:53:17.830Z,63.90
2017-12-10T10:55:45.427Z,64.10
2017-12-10T10:58:13.023Z,64.00
2017-12-10T11:00:40.631Z,64.80
2017-12-10T11:03:08.212Z,65.30
2017-12-10T11:05:35.816Z,65.70
2017-12-10T11:08:03.891Z,65.40
2017-12-10T11:10:32.431Z,65.00
2017-12-10T11:13:00.086Z,65.00
2017-12-10T11:15:28.511Z,65.90
2017-12-10T11:17:56.162Z,65.20
2017-12-10T11:20:23.760Z,66.10
2017-12-10T11:22:51.371Z,67.10
2017-12-10T11:25:18.941Z,67.80
2017-12-10T11:27:46.547Z,67.10
2017-12-10T11:30:14.115Z,67.60
2017-12-10T11:32:41.706Z,68.10
2017-12-10T11:35:09.282Z,68.50
2017-12-10T11:37:36.870Z,69.40
2017-12-10T11:40:04.444Z,68.80
2017-12-10T11:42:32.030Z,68.60
2017-12-10T11:45:00.374Z,68.90
2017-12-10T11:47:27.970Z,68.90
2017-12-10T11:49:56.319Z,69.20
2017-12-10T11:52:23.911Z,69.10
2017-12-10T11:54:52.275Z,68.30
2017-12-10T11:57:19.868Z,68.30
2017-12-10T11:59:47.439Z,68.60
2017-12-10T12:02:15.029Z,70.10
2017-12-10T12:04:43.401Z,69.40
2017-12-10T12:07:10.997Z,69.50
2017-12-10T12:09:39.330Z,68.50
2017-12-10T12:12:06.922Z,68.50
2017-12-10T12:14:34.485Z,68.40
2017-12-10T12:17:02.842Z,68.90
2017-12-10T12:19:30.425Z,68.70
2017-12-10T12:21:58.011Z,68.90
2017-12-10T12:24:25.835Z,68.80
2017-12-10T12:26:53.442Z,68.00
2017-12-10T12:29:21.007Z,67.80
2017-12-10T12:31:49.346Z,68.60
2017-12-10T12:34:16.934Z,68.50
2017-12-10T12:36:44.502Z,68.20
2017-12-10T12:39:12.092Z,67.90
2017-12-10T12:41:39.716Z,68.20
2017-12-10T12:44:08.059Z,67.20
2017-12-10T12:46:35.645Z,67.10
2017-12-10T12:49:03.252Z,67.40
2017-12-10T12:51:31.110Z,67.70
2017-12-10T12:53:59.270Z,68.60
2017-12-10T12:56:26.838Z,69.10
2017-12-10T12:58:54.437Z,69.30
2017-12-10T13:01:22.146Z,68.40
2017-12-10T13:03:49.730Z,67.70
2017-12-10T13:06:17.299Z,67.80
2017-12-10T13:08:44.899Z,67.80
2017-12-10T13:11:12.479Z,67.90
2017-12-10T13:13:40.074Z,69.40
2017-12-10T13:16:07.647Z,68.80
2017-12-10T13:18:35.250Z,68.80
2017-12-10T13:21:02.829Z,69.10
2017-12-10T13:23:30.434Z,69.80
2017-12-10T13:25:58.006Z,69.10
2017-12-10T13:28:25.599Z,70.00
2017-12-10T13:30:53.169Z,69.40
2017-12-10T13:33:20.749Z,68.90
2017-12-10T13:35:48.350Z,68.20
2017-12-10T13:38:15.957Z,68.00
2017-12-10T13:40:43.557Z,68.40
2017-12-10T13:43:11.898Z,69.40
2017-12-10T13:45:39.499Z,69.40
2017-12-10T13:48:07.067Z,70.30
2017-12-10T13:50:34.666Z,70.90
2017-12-10T13:53:02.277Z,72.10
2017-12-10T13:55:30.636Z,72.40
2017-12-10T13:57:58.973Z,73.60
2017-12-10T14:00:26.564Z,73.50
2017-12-10T14:02:54.122Z,74.30
2017-12-10T14:05:21.823Z,73.60
2017-12-10T14:07:49.502Z,72.70
2017-12-10T14:10:17.998Z,72.70
2017-12-10T14:12:46.227Z,72.70
2017-12-10T14:15:14.391Z,74.00
2017-12-10T14:17:42.031Z,73.80
2017-12-10T14:20:11.540Z,73.60
2017-12-10T14:22:39.146Z,73.00
2017-12-10T14:25:06.735Z,76.30
2017-12-10T14:27:35.907Z,76.40
2017-12-10T14:30:03.506Z,78.50
2017-12-10T14:32:31.082Z,78.90
2017-12-10T14:34:58.714Z,78.40
2017-12-10T14:37:26.282Z,76.90
2017-12-10T14:39:53.883Z,78.70
2017-12-10T14:42:21.450Z,78.90
2017-12-10T14:44:49.041Z,77.00
2017-12-10T14:47:16.619Z,78.40
2017-12-10T14:49:44.214Z,77.30
2017-12-10T14:52:12.555Z,78.30
2017-12-10T14:54:40.151Z,78.30
2017-12-10T14:57:08.921Z,78.00
2017-12-10T14:59:36.771Z,77.60
2017-12-10T15:02:05.163Z,78.00
2017-12-10T15:04:33.494Z,76.90
2017-12-10T15:07:01.098Z,76.80
2017-12-10T15:09:28.670Z,77.20
2017-12-10T15:11:57.025Z,77.60
2017-12-10T15:14:24.595Z,77.60
2017-12-10T15:16:52.963Z,78.30
2017-12-10T15:19:21.328Z,77.00
2017-12-10T15:21:48.923Z,77.00
2017-12-10T15:24:16.497Z,76.90
2017-12-10T15:26:44.091Z,76.70
2017-12-10T15:29:11.662Z,76.90
2017-12-10T15:31:39.415Z,76.40
2017-12-10T15:34:06.982Z,76.00
2017-12-10T15:36:34.601Z,75.90
2017-12-10T15:39:02.179Z,75.40
2017-12-10T15:41:29.815Z,75.50
2017-12-10T15:43:57.392Z,75.80
2017-12-10T15:46:24.982Z,75.80
2017-12-10T15:48:52.550Z,75.80
2017-12-10T15:51:20.163Z,75.30
2017-12-10T15:53:47.753Z,75.20
2017-12-10T15:56:15.351Z,75.20
2017-12-10T15:58:46.841Z,74.60
2017-12-10T16:01:16.587Z,74.60
2017-12-10T16:03:44.153Z,74.80
2017-12-10T16:06:11.713Z,74.10
2017-12-10T16:08:39.310Z,74.00
2017-12-10T16:11:06.886Z,74.00
2017-12-10T16:13:34.476Z,73.20
2017-12-10T16:16:02.922Z,73.00
2017-12-10T16:18:30.518Z,73.00
2017-12-10T16:20:58.095Z,72.90
2017-12-10T16:23:26.454Z,73.30
2017-12-10T16:25:54.079Z,73.70
2017-12-10T16:28:21.665Z,73.20
2017-12-10T16:30:49.231Z,73.00
2017-12-10T16:33:19.666Z,72.80
2017-12-10T16:35:47.806Z,73.10
2017-12-10T16:38:16.835Z,73.40
2017-12-10T16:40:46.135Z,73.20
2017-12-10T16:43:15.849Z,73.10
2017-12-10T16:45:44.207Z,73.20
2017-12-10T16:48:12.214Z,73.10
2017-12-10T16:50:40.554Z,72.80
2017-12-10T16:53:08.142Z,72.80
2017-12-10T16:55:37.249Z,72.60
2017-12-10T16:58:04.886Z,72.50
2017-12-10T17:00:32.559Z,72.50
2017-12-10T17:03:00.180Z,72.20
2017-12-10T17:05:27.747Z,72.40
2017-12-10T17:07:55.329Z,72.50
2017-12-10T17:10:23.676Z,72.20
2017-12-10T17:12:51.322Z,72.20
2017-12-10T17:15:18.901Z,72.70
2017-12-10T17:17:46.498Z,72.00
2017-12-10T17:20:14.833Z,71.50
2017-12-10T17:22:42.425Z,71.50
2017-12-10T17:25:10.766Z,71.70
2017-12-10T17:27:38.381Z,71.70
2017-12-10T17:30:05.954Z,72.00
2017-12-10T17:32:33.527Z,71.30
2017-12-10T17:35:01.462Z,71.60
2017-12-10T17:37:29.794Z,71.50
2017-12-10T17:39:57.394Z,71.60
2017-12-10T17:42:25.738Z,71.20
2017-12-10T17:44:53.332Z,71.20
2017-12-10T17:47:21.670Z,71.40
2017-12-10T17:49:49.264Z,71.30
2017-12-10T17:52:17.601Z,71.20
2017-12-10T17:54:45.227Z,71.10
2017-12-10T17:57:12.827Z,71.00
2017-12-10T17:59:40.418Z,70.70
2017-12-10T18:02:08.741Z,70.60
2017-12-10T18:04:36.326Z,70.50
2017-12-10T18:07:03.935Z,70.90
2017-12-10T18:09:31.522Z,70.70
2017-12-10T18:11:59.101Z,70.60
2017-12-10T18:14:26.694Z,70.40
2017-12-10T18:16:55.027Z,70.10
2017-12-10T18:19:22.639Z,70.10
2017-12-10T18:21:50.210Z,69.90
2017-12-10T18:24:17.807Z,70.00
2017-12-10T18:26:45.386Z,70.10
2017-12-10T18:29:12.982Z,70.00
2017-12-10T18:31:40.563Z,70.00
2017-12-10T18:34:08.148Z,69.60
2017-12-10T18:36:35.735Z,69.70
2017-12-10T18:39:03.326Z,68.80
2017-12-10T18:41:30.924Z,69.20
2017-12-10T18:43:58.500Z,68.70
2017-12-10T18:46:26.092Z,68.70
2017-12-10T18:48:53.671Z,68.50
2017-12-10T18:51:21.262Z,67.70
2017-12-10T18:53:48.832Z,67.50
2017-12-10T18:56:16.435Z,67.80
2017-12-10T18:58:44.007Z,68.10
2017-12-10T19:01:11.625Z,67.90
2017-12-10T19:03:39.199Z,68.10
2017-12-10T19:06:07.574Z,67.90
2017-12-10T19:08:35.902Z,67.10
2017-12-10T19:11:03.551Z,67.00
2017-12-10T19:13:31.095Z,67.40
2017-12-10T19:16:00.437Z,67.10
2017-12-10T19:18:28.662Z,67.10
2017-12-10T19:20:56.983Z,67.00
2017-12-10T19:23:24.634Z,67.20
2017-12-10T19:25:52.228Z,66.70
2017-12-10T19:28:19.799Z,66.50
2017-12-10T19:30:48.899Z,66.40
2017-12-10T19:33:16.739Z,67.00
2017-12-10T19:35:44.335Z,66.00
2017-12-10T19:38:12.708Z,65.80
2017-12-10T19:40:42.940Z,65.50
2017-12-10T19:43:10.736Z,65.60
2017-12-10T19:45:38.330Z,65.30
2017-12-10T19:48:06.277Z,65.40
2017-12-10T19:50:34.685Z,65.50
2017-12-10T19:53:03.650Z,64.90
2017-12-10T19:55:34.227Z,64.90
2017-12-10T19:58:03.700Z,64.00
2017-12-10T20:00:34.556Z,65.00
2017-12-10T20:03:03.521Z,63.50
2017-12-10T20:05:32.507Z,63.50
2017-12-10T20:08:00.167Z,63.90
2017-12-10T20:10:27.734Z,64.70
2017-12-10T20:12:55.496Z,64.10
2017-12-10T20:15:23.067Z,63.60
2017-12-10T20:17:51.423Z,63.70
2017-12-10T20:20:18.992Z,63.60
2017-12-10T20:22:46.594Z,63.90
2017-12-10T20:25:14.939Z,63.50
2017-12-10T20:27:42.542Z,63.50
2017-12-10T20:30:10.105Z,64.30
2017-12-10T20:32:37.698Z,64.70
2017-12-10T20:35:05.271Z,62.40
2017-12-10T20:37:32.867Z,62.60
2017-12-10T20:40:00.443Z,63.50
2017-12-10T20:42:28.029Z,63.60
2017-12-10T20:44:55.595Z,63.00
2017-12-10T20:47:23.907Z,62.50
2017-12-10T20:49:52.290Z,63.80
2017-12-10T20:52:19.931Z,63.70
2017-12-10T20:54:48.300Z,62.50
2017-12-10T20:57:15.887Z,62.40
2017-12-10T20:59:43.455Z,62.10
2017-12-10T21:02:11.050Z,62.20
2017-12-10T21:04:38.635Z,61.40
2017-12-10T21:07:06.242Z,63.00
2017-12-10T21:09:33.881Z,62.00
2017-12-10T21:12:02.236Z,62.60
2017-12-10T21:14:29.847Z,62.40
2017-12-10T21:16:57.415Z,63.40
2017-12-10T21:19:24.997Z,63.10
2017-12-10T21:21:52.584Z,63.40
2017-12-10T21:24:22.575Z,63.80
2017-12-10T21:26:50.134Z,63.80
2017-12-10T21:29:17.731Z,63.60
2017-12-10T21:31:45.302Z,64.20
2017-12-10T21:34:12.890Z,63.70
2017-12-10T21:36:40.466Z,63.00
2017-12-10T21:39:08.070Z,63.70
2017-12-10T21:41:35.638Z,63.30
2017-12-10T21:44:03.226Z,63.60
2017-12-10T21:46:30.794Z,63.30
2017-12-10T21:48:58.394Z,63.40
2017-12-10T21:51:26.731Z,63.50
2017-12-10T21:53:54.335Z,63.50
2017-12-10T21:56:21.902Z,64.00
2017-12-10T21:58:49.485Z,63.90
2017-12-10T22:01:17.046Z,63.20
2017-12-10T22:03:44.634Z,63.00
2017-12-10T22:06:12.206Z,63.90
2017-12-10T22:08:39.799Z,63.80
2017-12-10T22:11:07.376Z,64.70
2017-12-10T22:13:34.970Z,64.60
2017-12-10T22:16:02.544Z,65.10
2017-12-10T22:18:30.106Z,65.30
2017-12-10T22:20:57.694Z,65.80
2017-12-10T22:23:25.262Z,66.10
2017-12-10T22:25:52.850Z,66.60
2017-12-10T22:28:20.429Z,67.30
2017-12-10T22:30:48.023Z,68.00
2017-12-10T22:33:15.588Z,67.40
2017-12-10T22:35:43.186Z,68.10
2017-12-10T22:38:10.758Z,68.50
2017-12-10T22:40:38.350Z,68.60
2017-12-10T22:43:06.674Z,69.20
2017-12-10T22:45:34.262Z,69.20
2017-12-10T22:48:01.831Z,68.80
2017-12-10T22:50:29.414Z,68.60
2017-12-10T22:52:57.751Z,69.70
2017-12-10T22:55:25.342Z,69.60
2017-12-10T22:57:52.905Z,70.10
2017-12-10T23:00:21.262Z,70.20
2017-12-10T23:02:48.842Z,70.20
2017-12-10T23:05:26.030Z,70.20
2017-12-10T23:07:54.387Z,70.30
2017-12-10T23:10:21.978Z,70.20
2017-12-10T23:12:49.546Z,69.90
2017-12-10T23:15:17.133Z,70.40
2017-12-10T23:17:44.707Z,70.20
2017-12-10T23:20:12.293Z,70.70
2017-12-10T23:22:39.859Z,70.40
2017-12-10T23:25:08.215Z,70.80
2017-12-10T23:27:35.781Z,70.70
2017-12-10T23:30:03.378Z,71.40
2017-12-10T23:32:30.956Z,71.30
2017-12-10T23:34:58.561Z,71.70
2017-12-10T23:37:26.141Z,71.70
2017-12-10T23:39:53.735Z,70.80
2017-12-10T23:42:21.306Z,71.10
2017-12-10T23:44:48.875Z,71.00
2017-12-10T23:47:16.478Z,71.30
2017-12-10T23:49:44.052Z,71.60
2017-12-10T23:52:11.643Z,71.20
2017-12-10T23:54:39.209Z,70.70
2017-12-10T23:57:06.805Z,71.20
2017-12-10T23:59:34.383Z,71.00
